Observation data for Jayton on 10/26/2020      Previous  Date       Current Mesonet Observations  Soil Data  Daily Summary Page  Observations in Plain Language
KJTS 260500Z 01014G21KT 04/03 A3009 RMK A01 T00350031  RH  099%=      5-min Rain = 0
KJTS 260505Z 02013G19KT 04/03 A3009 RMK A01 T00350030  RH  099%=      5-min Rain = 0
KJTS 260510Z 01012G18KT 04/03 A301 RMK A01 T00350031  RH  099%=      5-min Rain = 0
KJTS 260515Z 02013G19KT 03/03 A301 RMK A01 T00340030  RH  099%=      5-min Rain = 0.01
KJTS 260520Z 01013G19KT 03/03 A301 RMK A01 T00340030  RH  099%=      5-min Rain = 0
KJTS 260525Z 01013G19KT 03/03 A3011 RMK A01 T00340029  RH  099%=      5-min Rain = 0
KJTS 260530Z 02014G21KT 03/03 A3011 RMK A01 T00320027  RH  099%=      5-min Rain = 0
KJTS 260535Z 02013G22KT 03/03 A3011 RMK A01 T00310026  RH  098%=      5-min Rain = 0
KJTS 260540Z 02012G18KT 03/03 A3012 RMK A01 T00310026  RH  098%=      5-min Rain = 0
KJTS 260545Z 02010G17KT 03/03 A3012 RMK A01 T00310026  RH  098%=      5-min Rain = 0.01
KJTS 260550Z 02008G15KT 03/03 A3011 RMK A01 T00310027  RH  099%=      5-min Rain = 0
KJTS 260555Z 02011G18KT 03/03 A3011 RMK A01 T00310026  RH  099%=      5-min Rain = 0
KJTS 260600Z 02014G20KT 03/03 A3011 RMK A01 T00290025  RH  099%=      5-min Rain = 0
KJTS 260605Z 02014G21KT 03/02 A3011 RMK A01 T00280024  RH  098%=      5-min Rain = 0
KJTS 260610Z 02014G21KT 03/02 A3011 RMK A01 T00270022  RH  098%=      5-min Rain = 0
KJTS 260615Z 03012G20KT 03/02 A301 RMK A01 T00270022  RH  098%=      5-min Rain = 0
KJTS 260620Z 03013G19KT 03/02 A301 RMK A01 T00260021  RH  098%=      5-min Rain = 0
KJTS 260625Z 02012G19KT 03/02 A301 RMK A01 T00260021  RH  098%=      5-min Rain = 0
KJTS 260630Z 02011G18KT 03/02 A301 RMK A01 T00260021  RH  098%=      5-min Rain = 0
KJTS 260635Z 02011G19KT 03/02 A301 RMK A01 T00260021  RH  098%=      5-min Rain = 0.01
KJTS 260640Z 02012G21KT 03/02 A301 RMK A01 T00250020  RH  098%=      5-min Rain = 0
KJTS 260645Z 02012G21KT 02/02 A3011 RMK A01 T00240020  RH  098%=      5-min Rain = 0
KJTS 260650Z 02013G22KT 02/02 A3011 RMK A01 T00230018  RH  098%=      5-min Rain = 0
KJTS 260655Z 02014G28KT 02/02 A301 RMK A01 T00220017  RH  098%=      5-min Rain = 0
KJTS 260700Z 02014G24KT 02/02 A301 RMK A01 T00200016  RH  098%=      5-min Rain = 0
KJTS 260705Z 02014G23KT 02/02 A3011 RMK A01 T00200015  RH  098%=      5-min Rain = 0
KJTS 260710Z 02012G25KT 02/01 A3011 RMK A01 T00200014  RH  098%=      5-min Rain = 0
KJTS 260715Z 02011G18KT 02/02 A3011 RMK A01 T00200015  RH  098%=      5-min Rain = 0
KJTS 260720Z 02011G17KT 02/02 A3011 RMK A01 T00200015  RH  098%=      5-min Rain = 0
KJTS 260725Z 02014G20KT 02/02 A3011 RMK A01 T00200015  RH  098%=      5-min Rain = 0
KJTS 260730Z 02014G24KT 02/02 A3011 RMK A01 T00200015  RH  098%=      5-min Rain = 0
KJTS 260735Z 01015G22KT 02/01 A3012 RMK A01 T00190014  RH  098%=      5-min Rain = 0
KJTS 260740Z 01015G21KT 02/01 A3013 RMK A01 T00180014  RH  098%=      5-min Rain = 0
KJTS 260745Z 01017G24KT 02/01 A3013 RMK A01 T00170013  RH  098%=      5-min Rain = 0
KJTS 260750Z 01016G23KT 02/01 A3013 RMK A01 T00160012  RH  098%=      5-min Rain = 0
KJTS 260755Z 02014G22KT 02/01 A3013 RMK A01 T00160011  RH  098%=      5-min Rain = 0
KJTS 260800Z 02013G21KT 02/01 A3013 RMK A01 T00160011  RH  098%=      5-min Rain = 0
KJTS 260805Z 01011G17KT 02/01 A3012 RMK A01 T00160012  RH  098%=      5-min Rain = 0
KJTS 260810Z 01015G24KT 02/01 A3012 RMK A01 T00160011  RH  098%=      5-min Rain = 0
KJTS 260815Z 01017G24KT 01/01 A3012 RMK A01 T00140009  RH  098%=      5-min Rain = 0
KJTS 260820Z 01015G24KT 01/01 A3012 RMK A01 T00130008  RH  098%=      5-min Rain = 0
KJTS 260825Z 01013G18KT 01/01 A3012 RMK A01 T00120008  RH  098%=      5-min Rain = 0
KJTS 260830Z 01017G24KT 01/01 A3012 RMK A01 T00110007  RH  098%=      5-min Rain = 0
KJTS 260835Z 01014G22KT 01/01 A3012 RMK A01 T00100006  RH  098%=      5-min Rain = 0
KJTS 260840Z 01016G25KT 01/01 A3012 RMK A01 T00090005  RH  098%=      5-min Rain = 0
KJTS 260845Z 01015G25KT 01/01 A3013 RMK A01 T00090005  RH  098%=      5-min Rain = 0
KJTS 260850Z 01015G21KT 01/00 A3014 RMK A01 T00090004  RH  098%=      5-min Rain = 0
KJTS 260855Z 01016G22KT 01/00 A3013 RMK A01 T00080004  RH  098%=      5-min Rain = 0
KJTS 260900Z 01014G22KT 01/00 A3014 RMK A01 T00080004  RH  098%=      5-min Rain = 0
KJTS 260905Z 01011G18KT 01/00 A3014 RMK A01 T00090004  RH  098%=      5-min Rain = 0
KJTS 260910Z 02011G17KT 01/00 A3013 RMK A01 T00080003  RH  098%=      5-min Rain = 0
KJTS 260915Z 02011KT 01/00 A3013 RMK A01 T00080004  RH  098%=      5-min Rain = 0
KJTS 260920Z 02011G17KT 01/00 A3013 RMK A01 T00080003  RH  098%=      5-min Rain = 0
KJTS 260925Z 01012G22KT 01/00 A3013 RMK A01 T00080004  RH  098%=      5-min Rain = 0.01
KJTS 260930Z 01017G23KT 01/00 A3014 RMK A01 T00050001  RH  098%=      5-min Rain = 0
KJTS 260935Z 02013G23KT 01/00 A3014 RMK A01 T00050000  RH  098%=      5-min Rain = 0
KJTS 260940Z 01014G21KT 00/00 A3013 RMK A01 T00040000  RH  098%=      5-min Rain = 0
KJTS 260945Z 01014G22KT 00/00 A3013 RMK A01 T000400-0  RH  098%=      5-min Rain = 0
KJTS 260950Z 01015G23KT 00/M00 A3013 RMK A01 T00041001  RH  098%=      5-min Rain = 0.01
KJTS 260955Z 02013G20KT 00/M00 A3013 RMK A01 T00041001  RH  098%=      5-min Rain = 0
KJTS 261000Z 01012G17KT 00/M00 A3014 RMK A01 T00041001  RH  098%=      5-min Rain = 0
KJTS 261005Z 01012G17KT 00/M00 A3014 RMK A01 T00041001  RH  098%=      5-min Rain = 0
KJTS 261010Z 00015G22KT 00/M00 A3014 RMK A01 T00031002  RH  098%=      5-min Rain = 0
KJTS 261015Z 01013G21KT 00/M00 A3014 RMK A01 T00011003  RH  098%=      5-min Rain = 0
KJTS 261020Z 02014G20KT 00/00 A3014 RMK A01 T000000-4  RH  098%=      5-min Rain = 0
KJTS 261025Z 02010G16KT 00/00 A3013 RMK A01 T000000-4  RH  098%=      5-min Rain = 0
KJTS 261030Z 02013G19KT 00/00 A3013 RMK A01 T000000-4  RH  098%=      5-min Rain = 0.01
KJTS 261035Z 01013G19KT 00/00 A3014 RMK A01 T000000-4  RH  098%=      5-min Rain = 0
KJTS 261040Z 02014G21KT M00/M00 A3014 RMK A01 T10011004  RH  098%=      5-min Rain = 0
KJTS 261045Z 02010G16KT 00/00 A3015 RMK A01 T00-000-4  RH  098%=      5-min Rain = 0
KJTS 261050Z 01012KT 00/00 A3015 RMK A01 T00-000-4  RH  098%=      5-min Rain = 0
KJTS 261055Z 00012KT M00/M00 A3017 RMK A01 T10011004  RH  098%=      5-min Rain = 0
KJTS 261100Z 00014G20KT M00/M01 A3016 RMK A01 T10021005  RH  099%=      5-min Rain = 0
KJTS 261105Z 00015G20KT M00/M01 A3016 RMK A01 T10021005  RH  099%=      5-min Rain = 0
KJTS 261110Z 00014G20KT M00/M01 A3017 RMK A01 T10031006  RH  099%=      5-min Rain = 0
KJTS 261115Z 00013G20KT M00/M01 A3018 RMK A01 T10031006  RH  099%=      5-min Rain = 0.01
KJTS 261120Z 01012G18KT M00/M01 A3018 RMK A01 T10031006  RH  099%=      5-min Rain = 0
KJTS 261125Z 35014KT M00/M01 A302 RMK A01 T10031006  RH  099%=      5-min Rain = 0
KJTS 261130Z 02011G16KT M00/M01 A3016 RMK A01 T10031006  RH  098%=      5-min Rain = 0
KJTS 261135Z 03010G15KT M00/M01 A3015 RMK A01 T10031007  RH  098%=      5-min Rain = 0
KJTS 261140Z 02008G14KT M00/M01 A3016 RMK A01 T10031007  RH  098%=      5-min Rain = 0
KJTS 261145Z 02008G15KT M00/M01 A3017 RMK A01 T10021007  RH  098%=      5-min Rain = 0
KJTS 261150Z 02007G12KT M00/M01 A3016 RMK A01 T10021006  RH  098%=      5-min Rain = 0
KJTS 261155Z 02007KT M00/M01 A3017 RMK A01 T10021006  RH  098%=      5-min Rain = 0
KJTS 261200Z 02007KT M00/M01 A3016 RMK A01 T10021006  RH  098%=      5-min Rain = 0
KJTS 261205Z 02006G11KT M00/M01 A3016 RMK A01 T10011005  RH  098%=      5-min Rain = 0
KJTS 261210Z 03007KT M00/M01 A3016 RMK A01 T10011005  RH  098%=      5-min Rain = 0
KJTS 261215Z 03007G12KT M00/M01 A3017 RMK A01 T10011005  RH  098%=      5-min Rain = 0
KJTS 261220Z 03008KT M00/M01 A3017 RMK A01 T10011005  RH  098%=      5-min Rain = 0
KJTS 261225Z 03008KT M00/M01 A3016 RMK A01 T10011005  RH  098%=      5-min Rain = 0
KJTS 261230Z 02007G12KT 00/00 A3016 RMK A01 T00-000-4  RH  098%=      5-min Rain = 0
KJTS 261235Z 02010KT 00/00 A3015 RMK A01 T000000-4  RH  098%=      5-min Rain = 0
KJTS 261240Z 02009G14KT 00/M00 A3016 RMK A01 T00011003  RH  098%=      5-min Rain = 0
KJTS 261245Z 01009G15KT 00/M00 A3017 RMK A01 T00011004  RH  098%=      5-min Rain = 0.01
KJTS 261250Z 01012G19KT 00/01 A3016 RMK A01 T00-000-5  RH  098%=      5-min Rain = 0.01
KJTS 261255Z 01012KT M00/M01 A3016 RMK A01 T10021007  RH  097%=      5-min Rain = 0
KJTS 261300Z 01010G16KT M00/M01 A3016 RMK A01 T10031008  RH  097%=      5-min Rain = 0
KJTS 261305Z 01011G17KT M00/M01 A3015 RMK A01 T10041009  RH  097%=      5-min Rain = 0
KJTS 261310Z 01011G16KT M00/M01 A3018 RMK A01 T10041010  RH  097%=      5-min Rain = 0
KJTS 261315Z 01010G17KT M00/M01 A3019 RMK A01 T10041010  RH  096%=      5-min Rain = 0.01
KJTS 261320Z 02008G13KT M00/M01 A3019 RMK A01 T10041011  RH  096%=      5-min Rain = 0
KJTS 261325Z 01010KT M00/M01 A3019 RMK A01 T10041011  RH  096%=      5-min Rain = 0
KJTS 261330Z 01009G14KT M00/M01 A3019 RMK A01 T10041011  RH  096%=      5-min Rain = 0
KJTS 261335Z 01010G15KT M00/M01 A3021 RMK A01 T10031011  RH  096%=      5-min Rain = 0
KJTS 261340Z 01011G17KT M00/M01 A3021 RMK A01 T10031011  RH  095%=      5-min Rain = 0
KJTS 261345Z 01010G15KT M00/M01 A3021 RMK A01 T10031012  RH  095%=      5-min Rain = 0
KJTS 261350Z 00010G15KT M00/M01 A3021 RMK A01 T10031012  RH  095%=      5-min Rain = 0
KJTS 261355Z 00009G15KT M00/M01 A3022 RMK A01 T10031011  RH  095%=      5-min Rain = 0
KJTS 261400Z 00009KT M00/M01 A3022 RMK A01 T10031011  RH  095%=      5-min Rain = 0
KJTS 261405Z 00013KT M00/M01 A3023 RMK A01 T10041013  RH  095%=      5-min Rain = 0
KJTS 261410Z 00012G17KT M01/M02 A3024 RMK A01 T10061015  RH  094%=      5-min Rain = 0
KJTS 261415Z 36013G18KT M01/M02 A3023 RMK A01 T10071016  RH  094%=      5-min Rain = 0
KJTS 261420Z 35012KT M01/M02 A3024 RMK A01 T10091018  RH  094%=      5-min Rain = 0
KJTS 261425Z 36012G17KT M01/M02 A3024 RMK A01 T10091018  RH  094%=      5-min Rain = 0
KJTS 261430Z 36012KT M01/M02 A3024 RMK A01 T10111019  RH  095%=      5-min Rain = 0
KJTS 261435Z 01010G15KT M01/M02 A3023 RMK A01 T10121020  RH  095%=      5-min Rain = 0
KJTS 261440Z 01010KT M01/M02 A3023 RMK A01 T10131021  RH  095%=      5-min Rain = 0
KJTS 261445Z 02008KT M01/M02 A3023 RMK A01 T10131020  RH  095%=      5-min Rain = 0
KJTS 261450Z 01008KT M01/M02 A3023 RMK A01 T10131020  RH  096%=      5-min Rain = 0
KJTS 261455Z 01007KT M01/M02 A3023 RMK A01 T10131020  RH  096%=      5-min Rain = 0
KJTS 261500Z 01008KT M01/M02 A3024 RMK A01 T10131020  RH  096%=      5-min Rain = 0
KJTS 261505Z 00007KT M01/M02 A3025 RMK A01 T10131019  RH  096%=      5-min Rain = 0
KJTS 261510Z 01010KT M01/M02 A3024 RMK A01 T10131020  RH  096%=      5-min Rain = 0
KJTS 261515Z 01007G12KT M01/M02 A3024 RMK A01 T10121020  RH  095%=      5-min Rain = 0
KJTS 261520Z 02007KT M01/M02 A3023 RMK A01 T10121020  RH  095%=      5-min Rain = 0
KJTS 261525Z 02008G13KT M01/M02 A3022 RMK A01 T10131020  RH  095%=      5-min Rain = 0
KJTS 261530Z 01008KT M01/M02 A3023 RMK A01 T10131021  RH  095%=      5-min Rain = 0
KJTS 261535Z 01007G12KT M01/M02 A3024 RMK A01 T10131021  RH  095%=      5-min Rain = 0
KJTS 261540Z 36008KT M01/M02 A3025 RMK A01 T10131021  RH  095%=      5-min Rain = 0
KJTS 261545Z 00008KT M02/M02 A3024 RMK A01 T10151024  RH  094%=      5-min Rain = 0
KJTS 261550Z 00008KT M02/M02 A3025 RMK A01 T10161024  RH  095%=      5-min Rain = 0
KJTS 261555Z 01008KT M02/M03 A3025 RMK A01 T10161025  RH  094%=      5-min Rain = 0
KJTS 261600Z 01007KT M02/M03 A3025 RMK A01 T10161025  RH  094%=      5-min Rain = 0
KJTS 261605Z 02006KT M02/M03 A3026 RMK A01 T10161025  RH  094%=      5-min Rain = 0
KJTS 261610Z 02006KT M02/M03 A3026 RMK A01 T10161025  RH  094%=      5-min Rain = 0
KJTS 261615Z 02008KT M02/M03 A3026 RMK A01 T10161026  RH  094%=      5-min Rain = 0
KJTS 261620Z 01006KT M02/M03 A3025 RMK A01 T10151025  RH  094%=      5-min Rain = 0
KJTS 261625Z 03006KT M01/M02 A3024 RMK A01 T10141024  RH  094%=      5-min Rain = 0
KJTS 261630Z 02007KT M01/M02 A3024 RMK A01 T10141024  RH  094%=      5-min Rain = 0
KJTS 261635Z 03007KT M01/M02 A3025 RMK A01 T10131024  RH  093%=      5-min Rain = 0
KJTS 261640Z 02006KT M01/M02 A3025 RMK A01 T10131024  RH  093%=      5-min Rain = 0
KJTS 261645Z 02006KT M01/M02 A3025 RMK A01 T10121022  RH  093%=      5-min Rain = 0
KJTS 261650Z 01006KT M01/M02 A3026 RMK A01 T10121021  RH  094%=      5-min Rain = 0
KJTS 261655Z 01007KT M01/M02 A3026 RMK A01 T10121020  RH  095%=      5-min Rain = 0
KJTS 261700Z 00007KT M01/M02 A3025 RMK A01 T10111019  RH  095%=      5-min Rain = 0
KJTS 261705Z 36008KT M01/M02 A3025 RMK A01 T10111019  RH  095%=      5-min Rain = 0
KJTS 261710Z 00008KT M01/M02 A3025 RMK A01 T10131021  RH  095%=      5-min Rain = 0
KJTS 261715Z 00008KT M01/M02 A3025 RMK A01 T10131020  RH  096%=      5-min Rain = 0
KJTS 261720Z 36008KT M01/M02 A3025 RMK A01 T10131021  RH  095%=      5-min Rain = 0
KJTS 261725Z 00009KT M02/M02 A3025 RMK A01 T10151023  RH  095%=      5-min Rain = 0
KJTS 261730Z 01007G12KT M01/M02 A3025 RMK A01 T10141022  RH  095%=      5-min Rain = 0
KJTS 261735Z 01008KT M01/M02 A3025 RMK A01 T10141021  RH  095%=      5-min Rain = 0
KJTS 261740Z 01006KT M01/M02 A3025 RMK A01 T10121020  RH  095%=      5-min Rain = 0
KJTS 261745Z 01008KT M01/M02 A3025 RMK A01 T10131021  RH  095%=      5-min Rain = 0
KJTS 261750Z 02006KT M01/M02 A3025 RMK A01 T10111019  RH  095%=      5-min Rain = 0
KJTS 261755Z 02006KT M01/M02 A3024 RMK A01 T10121020  RH  095%=      5-min Rain = 0
KJTS 261800Z 01006KT M01/M02 A3024 RMK A01 T10101018  RH  096%=      5-min Rain = 0
KJTS 261805Z 01005KT M01/M02 A3024 RMK A01 T10091015  RH  096%=      5-min Rain = 0
KJTS 261810Z 01006KT M01/M02 A3024 RMK A01 T10091015  RH  097%=      5-min Rain = 0
KJTS 261815Z 01006KT M01/M01 A3024 RMK A01 T10091014  RH  097%=      5-min Rain = 0
KJTS 261820Z 00008KT M01/M02 A3023 RMK A01 T10111017  RH  097%=      5-min Rain = 0
KJTS 261825Z 01006KT M01/M02 A3023 RMK A01 T10101016  RH  097%=      5-min Rain = 0
KJTS 261830Z 01007KT M01/M02 A3023 RMK A01 T10111016  RH  097%=      5-min Rain = 0
KJTS 261835Z 01007KT M01/M02 A3023 RMK A01 T10111017  RH  097%=      5-min Rain = 0
KJTS 261840Z 01006KT M01/M02 A3022 RMK A01 T10101015  RH  097%=      5-min Rain = 0
KJTS 261845Z 02006G11KT M01/M02 A3022 RMK A01 T10101016  RH  097%=      5-min Rain = 0
KJTS 261850Z 01007KT M01/M02 A3022 RMK A01 T10111018  RH  096%=      5-min Rain = 0
KJTS 261855Z 01006KT M01/M02 A3022 RMK A01 T10111018  RH  096%=      5-min Rain = 0
KJTS 261900Z 00007KT M01/M02 A3022 RMK A01 T10111018  RH  096%=      5-min Rain = 0
KJTS 261905Z 00007KT M01/M02 A3022 RMK A01 T10111018  RH  096%=      5-min Rain = 0
KJTS 261910Z 36007KT M01/M02 A3021 RMK A01 T10121019  RH  096%=      5-min Rain = 0
KJTS 261915Z 00007KT M01/M02 A3022 RMK A01 T10141020  RH  096%=      5-min Rain = 0
KJTS 261920Z 01007KT M01/M02 A3021 RMK A01 T10141020  RH  096%=      5-min Rain = 0
KJTS 261925Z 01005KT M01/M02 A3021 RMK A01 T10131020  RH  096%=      5-min Rain = 0
KJTS 261930Z 01006KT M01/M02 A3021 RMK A01 T10131020  RH  096%=      5-min Rain = 0
KJTS 261935Z 00006KT M01/M02 A3021 RMK A01 T10131020  RH  096%=      5-min Rain = 0
KJTS 261940Z 00007KT M02/M02 A3021 RMK A01 T10151022  RH  096%=      5-min Rain = 0
KJTS 261945Z 01007KT M02/M02 A3021 RMK A01 T10161023  RH  096%=      5-min Rain = 0
KJTS 261950Z 01008KT M02/M02 A3021 RMK A01 T10171023  RH  096%=      5-min Rain = 0
KJTS 261955Z 00007KT M02/M02 A3021 RMK A01 T10161023  RH  096%=      5-min Rain = 0
KJTS 262000Z 01007KT M02/M03 A3021 RMK A01 T10181025  RH  096%=      5-min Rain = 0
KJTS 262005Z 01006KT M02/M02 A3021 RMK A01 T10171024  RH  096%=      5-min Rain = 0
KJTS 262010Z 01006KT M02/M02 A3021 RMK A01 T10171024  RH  096%=      5-min Rain = 0
KJTS 262015Z 01006KT M02/M02 A302 RMK A01 T10171024  RH  096%=      5-min Rain = 0
KJTS 262020Z 02005KT M02/M02 A302 RMK A01 T10171024  RH  096%=      5-min Rain = 0
KJTS 262025Z 01006KT M02/M03 A302 RMK A01 T10181026  RH  095%=      5-min Rain = 0
KJTS 262030Z 02005KT M02/M03 A302 RMK A01 T10181026  RH  095%=      5-min Rain = 0
KJTS 262035Z 02006KT M02/M03 A302 RMK A01 T10201028  RH  095%=      5-min Rain = 0
KJTS 262040Z 01005KT M02/M03 A302 RMK A01 T10191027  RH  095%=      5-min Rain = 0
KJTS 262045Z 01005KT M02/M03 A302 RMK A01 T10181025  RH  096%=      5-min Rain = 0
KJTS 262050Z 01007KT M02/M03 A302 RMK A01 T10211028  RH  096%=      5-min Rain = 0
KJTS 262055Z 01006KT M02/M03 A302 RMK A01 T10211028  RH  095%=      5-min Rain = 0
KJTS 262100Z 01004KT M02/M03 A302 RMK A01 T10201027  RH  096%=      5-min Rain = 0
KJTS 262105Z 00006KT M02/M03 A302 RMK A01 T10211027  RH  096%=      5-min Rain = 0
KJTS 262110Z 00007KT M02/M03 A302 RMK A01 T10231030  RH  096%=      5-min Rain = 0
KJTS 262115Z 01005KT M02/M03 A302 RMK A01 T10231029  RH  096%=      5-min Rain = 0
KJTS 262120Z 00006KT M02/M03 A302 RMK A01 T10241030  RH  096%=      5-min Rain = 0
KJTS 262125Z 01007KT M03/M03 A302 RMK A01 T10251031  RH  096%=      5-min Rain = 0
KJTS 262130Z 01007KT M03/M03 A302 RMK A01 T10251032  RH  096%=      5-min Rain = 0
KJTS 262135Z 01006KT M02/M03 A302 RMK A01 T10241031  RH  095%=      5-min Rain = 0
KJTS 262140Z 01005KT M02/M03 A302 RMK A01 T10241032  RH  095%=      5-min Rain = 0
KJTS 262145Z 01005KT M02/M03 A302 RMK A01 T10231031  RH  095%=      5-min Rain = 0
KJTS 262150Z 02005KT M02/M03 A302 RMK A01 T10231031  RH  095%=      5-min Rain = 0
KJTS 262155Z 02005KT M02/M03 A302 RMK A01 T10231031  RH  095%=      5-min Rain = 0
KJTS 262200Z 01006KT M02/M03 A302 RMK A01 T10231032  RH  094%=      5-min Rain = 0
KJTS 262205Z 02005KT M02/M03 A302 RMK A01 T10231031  RH  094%=      5-min Rain = 0
KJTS 262210Z 01005KT M02/M03 A302 RMK A01 T10221031  RH  094%=      5-min Rain = 0
KJTS 262215Z 01005KT M02/M03 A302 RMK A01 T10221030  RH  095%=      5-min Rain = 0
KJTS 262220Z 01006KT M02/M03 A302 RMK A01 T10221030  RH  095%=      5-min Rain = 0
KJTS 262225Z 01005KT M02/M03 A302 RMK A01 T10221030  RH  095%=      5-min Rain = 0
KJTS 262230Z 01005KT M02/M03 A302 RMK A01 T10221030  RH  095%=      5-min Rain = 0
KJTS 262235Z 00006KT M02/M03 A302 RMK A01 T10231031  RH  095%=      5-min Rain = 0
KJTS 262240Z 01006KT M02/M03 A3021 RMK A01 T10241031  RH  095%=      5-min Rain = 0
KJTS 262245Z 01006KT M03/M03 A3021 RMK A01 T10251033  RH  095%=      5-min Rain = 0
KJTS 262250Z 01005KT M03/M03 A3021 RMK A01 T10251033  RH  095%=      5-min Rain = 0
KJTS 262255Z 01005KT M03/M03 A3021 RMK A01 T10251033  RH  095%=      5-min Rain = 0
KJTS 262300Z 02005KT M03/M03 A3021 RMK A01 T10251032  RH  095%=      5-min Rain = 0
KJTS 262305Z 02004KT M02/M03 A302 RMK A01 T10241032  RH  095%=      5-min Rain = 0
KJTS 262310Z 02004KT M02/M03 A302 RMK A01 T10241031  RH  095%=      5-min Rain = 0
KJTS 262315Z 01005KT M02/M03 A302 RMK A01 T10241031  RH  096%=      5-min Rain = 0
KJTS 262320Z 02004KT M02/M03 A302 RMK A01 T10241030  RH  096%=      5-min Rain = 0
KJTS 262325Z 02005KT M03/M03 A3021 RMK A01 T10251031  RH  096%=      5-min Rain = 0
KJTS 262330Z 02005KT M03/M03 A3021 RMK A01 T10251032  RH  095%=      5-min Rain = 0
KJTS 262335Z 01005KT M03/M03 A3021 RMK A01 T10251033  RH  095%=      5-min Rain = 0
KJTS 262340Z 01005KT M03/M03 A3021 RMK A01 T10251033  RH  095%=      5-min Rain = 0
KJTS 262345Z 02005KT M03/M03 A3021 RMK A01 T10251033  RH  095%=      5-min Rain = 0
KJTS 262350Z 02004KT M03/M03 A3021 RMK A01 T10251033  RH  095%=      5-min Rain = 0
KJTS 262355Z 02004KT M03/M03 A3021 RMK A01 T10251032  RH  095%=      5-min Rain = 0
KJTS 270000Z 02005KT M03/M03 A3022 RMK A01 T10261033  RH  095%=      5-min Rain = 0
KJTS 270005Z 02004KT M03/M03 A3022 RMK A01 T10261033  RH  096%=      5-min Rain = 0
KJTS 270010Z 02004KT M03/M03 A3022 RMK A01 T10251032  RH  096%=      5-min Rain = 0
KJTS 270015Z 01005KT M02/M03 A3022 RMK A01 T10241031  RH  096%=      5-min Rain = 0
KJTS 270020Z 01005KT M03/M03 A3023 RMK A01 T10251031  RH  096%=      5-min Rain = 0
KJTS 270025Z 01005KT M02/M03 A3023 RMK A01 T10241030  RH  096%=      5-min Rain = 0
KJTS 270030Z 01005KT M02/M03 A3023 RMK A01 T10241030  RH  096%=      5-min Rain = 0
KJTS 270035Z 01005KT M03/M03 A3023 RMK A01 T10251030  RH  097%=      5-min Rain = 0
KJTS 270040Z 01005KT M03/M03 A3023 RMK A01 T10251030  RH  097%=      5-min Rain = 0
KJTS 270045Z 01005KT M03/M03 A3023 RMK A01 T10251031  RH  097%=      5-min Rain = 0
KJTS 270050Z 01005KT M03/M03 A3023 RMK A01 T10251030  RH  097%=      5-min Rain = 0
KJTS 270055Z 01005KT M02/M03 A3024 RMK A01 T10241029  RH  097%=      5-min Rain = 0
KJTS 270100Z 01004KT M02/M03 A3024 RMK A01 T10231028  RH  097%=      5-min Rain = 0
KJTS 270105Z 00005KT M03/M03 A3024 RMK A01 T10251029  RH  097%=      5-min Rain = 0
KJTS 270110Z 01005KT M03/M03 A3024 RMK A01 T10261030  RH  097%=      5-min Rain = 0
KJTS 270115Z 01004KT M03/M03 A3024 RMK A01 T10261030  RH  097%=      5-min Rain = 0
KJTS 270120Z 01005KT M03/M03 A3024 RMK A01 T10261030  RH  097%=      5-min Rain = 0
KJTS 270125Z 01004KT M03/M03 A3024 RMK A01 T10261031  RH  097%=      5-min Rain = 0
KJTS 270130Z 01004KT M03/M03 A3025 RMK A01 T10261031  RH  097%=      5-min Rain = 0
KJTS 270135Z 02004KT M03/M03 A3025 RMK A01 T10261031  RH  097%=      5-min Rain = 0
KJTS 270140Z 02003KT M03/M03 A3024 RMK A01 T10261031  RH  097%=      5-min Rain = 0
KJTS 270145Z 02003KT M03/M03 A3024 RMK A01 T10261031  RH  097%=      5-min Rain = 0
KJTS 270150Z 02004KT M03/M03 A3024 RMK A01 T10261031  RH  097%=      5-min Rain = 0
KJTS 270155Z 02004KT M03/M03 A3024 RMK A01 T10261031  RH  097%=      5-min Rain = 0
KJTS 270200Z 01004KT M03/M03 A3024 RMK A01 T10261031  RH  097%=      5-min Rain = 0
KJTS 270205Z 01004KT M03/M03 A3024 RMK A01 T10261031  RH  097%=      5-min Rain = 0
KJTS 270210Z 02003KT M03/M03 A3024 RMK A01 T10251029  RH  097%=      5-min Rain = 0
KJTS 270215Z 02004KT M03/M03 A3024 RMK A01 T10251030  RH  098%=      5-min Rain = 0
KJTS 270220Z 02004KT M03/M03 A3024 RMK A01 T10261031  RH  097%=      5-min Rain = 0
KJTS 270225Z 02004KT M03/M03 A3024 RMK A01 T10271031  RH  097%=      5-min Rain = 0
KJTS 270230Z 02003KT M03/M03 A3024 RMK A01 T10271032  RH  097%=      5-min Rain = 0
KJTS 270235Z 02004KT M03/M03 A3024 RMK A01 T10271032  RH  097%=      5-min Rain = 0
KJTS 270240Z 02004KT M03/M03 A3024 RMK A01 T10271032  RH  097%=      5-min Rain = 0
KJTS 270245Z 02005KT M03/M03 A3023 RMK A01 T10261032  RH  097%=      5-min Rain = 0
KJTS 270250Z 01005KT M03/M03 A3023 RMK A01 T10261031  RH  097%=      5-min Rain = 0
KJTS 270255Z 02004KT M03/M03 A3023 RMK A01 T10271032  RH  097%=      5-min Rain = 0
KJTS 270300Z 02004KT M03/M03 A3023 RMK A01 T10271032  RH  097%=      5-min Rain = 0
KJTS 270305Z 02004KT M03/M03 A3023 RMK A01 T10271032  RH  097%=      5-min Rain = 0
KJTS 270310Z 02003KT M03/M03 A3023 RMK A01 T10271032  RH  097%=      5-min Rain = 0
KJTS 270315Z 02004KT M03/M03 A3022 RMK A01 T10271032  RH  097%=      5-min Rain = 0
KJTS 270320Z 02004KT M03/M03 A3022 RMK A01 T10261031  RH  097%=      5-min Rain = 0
KJTS 270325Z 02003KT M03/M03 A3022 RMK A01 T10271031  RH  097%=      5-min Rain = 0
KJTS 270330Z 02003KT M03/M03 A3021 RMK A01 T10261030  RH  098%=      5-min Rain = 0
KJTS 270335Z 02004KT M03/M03 A3022 RMK A01 T10271031  RH  098%=      5-min Rain = 0
KJTS 270340Z 02004KT M03/M03 A3022 RMK A01 T10281032  RH  098%=      5-min Rain = 0
KJTS 270345Z 02004KT M03/M03 A3022 RMK A01 T10281033  RH  097%=      5-min Rain = 0
KJTS 270350Z 02004KT M03/M03 A3023 RMK A01 T10281033  RH  097%=      5-min Rain = 0
KJTS 270355Z 02003KT M03/M03 A3023 RMK A01 T10281032  RH  097%=      5-min Rain = 0
KJTS 270400Z 02003KT M03/M03 A3022 RMK A01 T10271032  RH  097%=      5-min Rain = 0
KJTS 270405Z 02004KT M03/M03 A3022 RMK A01 T10281032  RH  097%=      5-min Rain = 0
KJTS 270410Z 01004KT M03/M03 A3023 RMK A01 T10291033  RH  097%=      5-min Rain = 0
KJTS 270415Z 01004KT M03/M03 A3023 RMK A01 T10291033  RH  097%=      5-min Rain = 0
KJTS 270420Z 01005KT M03/M03 A3023 RMK A01 T10291033  RH  098%=      5-min Rain = 0
KJTS 270425Z 02004KT M03/M03 A3024 RMK A01 T10301034  RH  098%=      5-min Rain = 0
KJTS 270430Z 01004KT M03/M03 A3024 RMK A01 T10291034  RH  098%=      5-min Rain = 0
KJTS 270435Z 01003KT M03/M03 A3024 RMK A01 T10291033  RH  098%=      5-min Rain = 0
KJTS 270440Z 01004KT M03/M03 A3024 RMK A01 T10291033  RH  098%=      5-min Rain = 0
KJTS 270445Z 01004KT M03/M03 A3024 RMK A01 T10301034  RH  097%=      5-min Rain = 0
KJTS 270450Z 01004KT M03/M03 A3024 RMK A01 T10301034  RH  097%=      5-min Rain = 0
KJTS 270455Z 01005KT M03/M04 A3024 RMK A01 T10301035  RH  097%=      5-min Rain = 0

Page generated in 0.0215 seconds.